sensor_id;sensor_type;location;lat;lon;timestamp;P1;durP1;ratioP1;P2;durP2;ratioP2
27558;SDS011;15002;52.028;5.670;2023-07-02T00:02:16;15.43;;;7.10;;
27558;SDS011;15002;52.028;5.670;2023-07-02T00:04:43;17.45;;;6.13;;
27558;SDS011;15002;52.028;5.670;2023-07-02T00:07:09;18.60;;;7.78;;
27558;SDS011;15002;52.028;5.670;2023-07-02T00:09:35;18.83;;;7.57;;
27558;SDS011;15002;52.028;5.670;2023-07-02T00:12:00;12.70;;;6.72;;
27558;SDS011;15002;52.028;5.670;2023-07-02T00:14:26;19.33;;;7.10;;
27558;SDS011;15002;52.028;5.670;2023-07-02T00:16:52;15.82;;;7.72;;
27558;SDS011;15002;52.028;5.670;2023-07-02T00:19:17;16.23;;;7.15;;
27558;SDS011;15002;52.028;5.670;2023-07-02T00:21:43;12.35;;;6.00;;
27558;SDS011;15002;52.028;5.670;2023-07-02T00:24:09;15.35;;;6.28;;
27558;SDS011;15002;52.028;5.670;2023-07-02T00:26:35;13.18;;;6.45;;
27558;SDS011;15002;52.028;5.670;2023-07-02T00:29:02;17.48;;;6.75;;
27558;SDS011;15002;52.028;5.670;2023-07-02T00:31:29;13.40;;;5.75;;
27558;SDS011;15002;52.028;5.670;2023-07-02T00:33:55;14.18;;;5.95;;
27558;SDS011;15002;52.028;5.670;2023-07-02T00:36:20;14.15;;;6.30;;
27558;SDS011;15002;52.028;5.670;2023-07-02T00:38:46;12.60;;;5.90;;
27558;SDS011;15002;52.028;5.670;2023-07-02T00:41:13;15.23;;;6.35;;
27558;SDS011;15002;52.028;5.670;2023-07-02T00:43:39;15.10;;;6.63;;
27558;SDS011;15002;52.028;5.670;2023-07-02T00:46:08;18.95;;;6.90;;
27558;SDS011;15002;52.028;5.670;2023-07-02T00:48:48;12.93;;;6.43;;
27558;SDS011;15002;52.028;5.670;2023-07-02T00:51:15;18.42;;;6.85;;
27558;SDS011;15002;52.028;5.670;2023-07-02T00:53:52;17.13;;;6.10;;
27558;SDS011;15002;52.028;5.670;2023-07-02T00:56:19;13.10;;;5.88;;
27558;SDS011;15002;52.028;5.670;2023-07-02T00:58:46;12.65;;;6.20;;
27558;SDS011;15002;52.028;5.670;2023-07-02T01:01:15;13.90;;;6.50;;
27558;SDS011;15002;52.028;5.670;2023-07-02T01:04:01;16.92;;;6.03;;
27558;SDS011;15002;52.028;5.670;2023-07-02T01:06:32;14.07;;;6.38;;
27558;SDS011;15002;52.028;5.670;2023-07-02T01:09:05;16.02;;;6.20;;
27558;SDS011;15002;52.028;5.670;2023-07-02T01:11:31;12.88;;;5.90;;
27558;SDS011;15002;52.028;5.670;2023-07-02T01:14:08;14.45;;;6.60;;
27558;SDS011;15002;52.028;5.670;2023-07-02T01:16:36;14.70;;;6.70;;
27558;SDS011;15002;52.028;5.670;2023-07-02T01:19:05;14.20;;;5.35;;
27558;SDS011;15002;52.028;5.670;2023-07-02T01:24:20;12.93;;;5.88;;
27558;SDS011;15002;52.028;5.670;2023-07-02T01:26:46;14.80;;;6.40;;
27558;SDS011;15002;52.028;5.670;2023-07-02T01:29:16;14.38;;;6.40;;
27558;SDS011;15002;52.028;5.670;2023-07-02T01:31:42;13.37;;;6.40;;
27558;SDS011;15002;52.028;5.670;2023-07-02T01:34:08;11.40;;;5.43;;
27558;SDS011;15002;52.028;5.670;2023-07-02T01:36:34;14.05;;;6.38;;
27558;SDS011;15002;52.028;5.670;2023-07-02T01:39:00;13.55;;;6.57;;
27558;SDS011;15002;52.028;5.670;2023-07-02T01:41:25;15.88;;;6.10;;
27558;SDS011;15002;52.028;5.670;2023-07-02T01:43:51;15.93;;;6.70;;
27558;SDS011;15002;52.028;5.670;2023-07-02T01:46:17;15.27;;;6.63;;
27558;SDS011;15002;52.028;5.670;2023-07-02T01:48:42;11.65;;;5.97;;
27558;SDS011;15002;52.028;5.670;2023-07-02T01:51:08;15.43;;;6.10;;
27558;SDS011;15002;52.028;5.670;2023-07-02T01:53:33;15.57;;;6.72;;
27558;SDS011;15002;52.028;5.670;2023-07-02T01:55:59;18.85;;;6.95;;
27558;SDS011;15002;52.028;5.670;2023-07-02T01:58:25;12.90;;;6.20;;
27558;SDS011;15002;52.028;5.670;2023-07-02T02:00:50;16.52;;;6.25;;
27558;SDS011;15002;52.028;5.670;2023-07-02T02:03:16;14.57;;;6.53;;
27558;SDS011;15002;52.028;5.670;2023-07-02T02:05:42;17.70;;;7.25;;
27558;SDS011;15002;52.028;5.670;2023-07-02T02:08:07;14.75;;;6.90;;
27558;SDS011;15002;52.028;5.670;2023-07-02T02:10:33;20.17;;;7.15;;
27558;SDS011;15002;52.028;5.670;2023-07-02T02:12:58;14.35;;;6.95;;
27558;SDS011;15002;52.028;5.670;2023-07-02T02:15:24;18.05;;;7.60;;
27558;SDS011;15002;52.028;5.670;2023-07-02T02:17:50;17.80;;;7.55;;
27558;SDS011;15002;52.028;5.670;2023-07-02T02:20:16;18.45;;;7.50;;
27558;SDS011;15002;52.028;5.670;2023-07-02T02:22:42;15.63;;;7.20;;
27558;SDS011;15002;52.028;5.670;2023-07-02T02:25:07;15.77;;;7.38;;
27558;SDS011;15002;52.028;5.670;2023-07-02T02:27:34;17.92;;;7.78;;
27558;SDS011;15002;52.028;5.670;2023-07-02T02:30:00;14.38;;;7.38;;
27558;SDS011;15002;52.028;5.670;2023-07-02T02:32:25;15.18;;;7.18;;
27558;SDS011;15002;52.028;5.670;2023-07-02T02:34:51;16.65;;;7.72;;
27558;SDS011;15002;52.028;5.670;2023-07-02T02:37:18;18.58;;;7.57;;
27558;SDS011;15002;52.028;5.670;2023-07-02T02:39:43;15.70;;;7.57;;
27558;SDS011;15002;52.028;5.670;2023-07-02T02:42:09;13.30;;;7.38;;
27558;SDS011;15002;52.028;5.670;2023-07-02T02:44:35;17.02;;;7.93;;
27558;SDS011;15002;52.028;5.670;2023-07-02T02:47:01;13.80;;;6.93;;
27558;SDS011;15002;52.028;5.670;2023-07-02T02:49:26;15.45;;;7.28;;
27558;SDS011;15002;52.028;5.670;2023-07-02T02:51:52;18.38;;;8.15;;
27558;SDS011;15002;52.028;5.670;2023-07-02T02:54:18;17.88;;;7.80;;
27558;SDS011;15002;52.028;5.670;2023-07-02T02:56:43;19.45;;;8.07;;
27558;SDS011;15002;52.028;5.670;2023-07-02T02:59:09;14.77;;;7.75;;
27558;SDS011;15002;52.028;5.670;2023-07-02T03:01:34;17.27;;;8.02;;
27558;SDS011;15002;52.028;5.670;2023-07-02T03:04:00;11.90;;;7.18;;
27558;SDS011;15002;52.028;5.670;2023-07-02T03:06:25;16.58;;;8.02;;
27558;SDS011;15002;52.028;5.670;2023-07-02T03:08:51;14.02;;;7.45;;
27558;SDS011;15002;52.028;5.670;2023-07-02T03:11:17;16.67;;;7.57;;
27558;SDS011;15002;52.028;5.670;2023-07-02T03:13:42;17.65;;;7.38;;
27558;SDS011;15002;52.028;5.670;2023-07-02T03:16:08;20.42;;;7.72;;
27558;SDS011;15002;52.028;5.670;2023-07-02T03:18:34;21.33;;;8.00;;
27558;SDS011;15002;52.028;5.670;2023-07-02T03:21:00;18.02;;;7.93;;
27558;SDS011;15002;52.028;5.670;2023-07-02T03:23:25;16.17;;;7.90;;
27558;SDS011;15002;52.028;5.670;2023-07-02T03:25:51;18.35;;;7.35;;
27558;SDS011;15002;52.028;5.670;2023-07-02T03:28:16;16.38;;;7.35;;
27558;SDS011;15002;52.028;5.670;2023-07-02T03:30:42;20.02;;;7.32;;
27558;SDS011;15002;52.028;5.670;2023-07-02T03:33:08;18.50;;;7.65;;
27558;SDS011;15002;52.028;5.670;2023-07-02T03:35:35;18.92;;;8.35;;
27558;SDS011;15002;52.028;5.670;2023-07-02T03:38:00;15.18;;;7.38;;
27558;SDS011;15002;52.028;5.670;2023-07-02T03:40:27;16.98;;;7.72;;
27558;SDS011;15002;52.028;5.670;2023-07-02T03:42:52;14.75;;;6.88;;
27558;SDS011;15002;52.028;5.670;2023-07-02T03:45:18;17.73;;;7.22;;
27558;SDS011;15002;52.028;5.670;2023-07-02T03:47:43;17.13;;;7.68;;
27558;SDS011;15002;52.028;5.670;2023-07-02T03:50:09;19.67;;;7.15;;
27558;SDS011;15002;52.028;5.670;2023-07-02T03:52:35;15.00;;;7.38;;
27558;SDS011;15002;52.028;5.670;2023-07-02T03:55:00;24.58;;;7.63;;
27558;SDS011;15002;52.028;5.670;2023-07-02T03:57:26;16.58;;;7.15;;
27558;SDS011;15002;52.028;5.670;2023-07-02T03:59:52;17.42;;;7.55;;
27558;SDS011;15002;52.028;5.670;2023-07-02T04:02:18;13.65;;;6.47;;
27558;SDS011;15002;52.028;5.670;2023-07-02T04:04:44;13.18;;;6.47;;
27558;SDS011;15002;52.028;5.670;2023-07-02T04:07:09;16.25;;;7.75;;
27558;SDS011;15002;52.028;5.670;2023-07-02T04:09:35;16.88;;;6.68;;
27558;SDS011;15002;52.028;5.670;2023-07-02T04:12:01;19.70;;;7.10;;
27558;SDS011;15002;52.028;5.670;2023-07-02T04:14:26;19.88;;;7.35;;
27558;SDS011;15002;52.028;5.670;2023-07-02T04:16:52;16.80;;;6.75;;
27558;SDS011;15002;52.028;5.670;2023-07-02T04:19:18;18.65;;;6.75;;
27558;SDS011;15002;52.028;5.670;2023-07-02T04:21:43;17.08;;;6.55;;
27558;SDS011;15002;52.028;5.670;2023-07-02T04:24:09;20.75;;;7.43;;
27558;SDS011;15002;52.028;5.670;2023-07-02T04:26:34;16.48;;;6.97;;
27558;SDS011;15002;52.028;5.670;2023-07-02T04:29:01;15.68;;;6.50;;
27558;SDS011;15002;52.028;5.670;2023-07-02T04:31:27;14.93;;;5.95;;
27558;SDS011;15002;52.028;5.670;2023-07-02T04:33:53;15.77;;;6.40;;
27558;SDS011;15002;52.028;5.670;2023-07-02T04:36:18;16.88;;;7.35;;
27558;SDS011;15002;52.028;5.670;2023-07-02T04:38:44;20.23;;;7.15;;
27558;SDS011;15002;52.028;5.670;2023-07-02T04:41:10;14.90;;;6.43;;
27558;SDS011;15002;52.028;5.670;2023-07-02T04:43:35;19.20;;;6.88;;
27558;SDS011;15002;52.028;5.670;2023-07-02T04:46:01;14.55;;;6.55;;
27558;SDS011;15002;52.028;5.670;2023-07-02T04:48:27;18.05;;;7.18;;
27558;SDS011;15002;52.028;5.670;2023-07-02T04:50:53;17.05;;;6.28;;
27558;SDS011;15002;52.028;5.670;2023-07-02T04:53:18;16.33;;;6.78;;
27558;SDS011;15002;52.028;5.670;2023-07-02T04:55:44;16.05;;;6.13;;
27558;SDS011;15002;52.028;5.670;2023-07-02T04:58:10;16.08;;;6.35;;
27558;SDS011;15002;52.028;5.670;2023-07-02T05:00:35;14.45;;;6.70;;
27558;SDS011;15002;52.028;5.670;2023-07-02T05:03:01;17.52;;;6.75;;
27558;SDS011;15002;52.028;5.670;2023-07-02T05:05:27;18.63;;;6.95;;
27558;SDS011;15002;52.028;5.670;2023-07-02T05:07:53;14.77;;;7.20;;
27558;SDS011;15002;52.028;5.670;2023-07-02T05:10:19;18.55;;;7.15;;
27558;SDS011;15002;52.028;5.670;2023-07-02T05:12:46;18.38;;;7.15;;
27558;SDS011;15002;52.028;5.670;2023-07-02T05:15:11;17.88;;;7.55;;
27558;SDS011;15002;52.028;5.670;2023-07-02T05:17:37;17.45;;;7.13;;
27558;SDS011;15002;52.028;5.670;2023-07-02T05:20:03;18.95;;;7.32;;
27558;SDS011;15002;52.028;5.670;2023-07-02T05:22:32;20.50;;;7.32;;
27558;SDS011;15002;52.028;5.670;2023-07-02T05:24:57;16.02;;;6.68;;
27558;SDS011;15002;52.028;5.670;2023-07-02T05:27:23;15.40;;;7.07;;
27558;SDS011;15002;52.028;5.670;2023-07-02T05:29:49;17.27;;;7.10;;
27558;SDS011;15002;52.028;5.670;2023-07-02T05:32:15;14.57;;;6.80;;
27558;SDS011;15002;52.028;5.670;2023-07-02T05:34:40;16.90;;;7.05;;
27558;SDS011;15002;52.028;5.670;2023-07-02T05:37:06;17.45;;;7.22;;
27558;SDS011;15002;52.028;5.670;2023-07-02T05:39:33;18.98;;;7.55;;
27558;SDS011;15002;52.028;5.670;2023-07-02T05:41:59;15.10;;;6.88;;
27558;SDS011;15002;52.028;5.670;2023-07-02T05:44:24;16.23;;;7.57;;
27558;SDS011;15002;52.028;5.670;2023-07-02T05:46:50;17.08;;;6.82;;
27558;SDS011;15002;52.028;5.670;2023-07-02T05:49:16;19.85;;;6.55;;
27558;SDS011;15002;52.028;5.670;2023-07-02T05:51:41;23.45;;;7.85;;
27558;SDS011;15002;52.028;5.670;2023-07-02T05:54:07;19.92;;;7.95;;
27558;SDS011;15002;52.028;5.670;2023-07-02T05:56:32;21.63;;;7.63;;
27558;SDS011;15002;52.028;5.670;2023-07-02T05:58:58;12.80;;;6.60;;
27558;SDS011;15002;52.028;5.670;2023-07-02T06:01:24;14.20;;;6.60;;
27558;SDS011;15002;52.028;5.670;2023-07-02T06:03:50;19.40;;;7.72;;
27558;SDS011;15002;52.028;5.670;2023-07-02T06:06:15;18.38;;;7.03;;
27558;SDS011;15002;52.028;5.670;2023-07-02T06:08:41;21.60;;;6.47;;
27558;SDS011;15002;52.028;5.670;2023-07-02T06:11:07;19.13;;;6.63;;
27558;SDS011;15002;52.028;5.670;2023-07-02T06:13:34;17.48;;;6.95;;
27558;SDS011;15002;52.028;5.670;2023-07-02T06:16:00;18.92;;;6.93;;
27558;SDS011;15002;52.028;5.670;2023-07-02T06:18:25;20.27;;;7.30;;
27558;SDS011;15002;52.028;5.670;2023-07-02T06:20:51;16.65;;;6.53;;
27558;SDS011;15002;52.028;5.670;2023-07-02T06:23:17;15.52;;;5.72;;
27558;SDS011;15002;52.028;5.670;2023-07-02T06:25:42;14.20;;;6.95;;
27558;SDS011;15002;52.028;5.670;2023-07-02T06:28:09;17.25;;;6.20;;
27558;SDS011;15002;52.028;5.670;2023-07-02T06:30:35;18.33;;;6.80;;
27558;SDS011;15002;52.028;5.670;2023-07-02T06:33:00;15.60;;;6.05;;
27558;SDS011;15002;52.028;5.670;2023-07-02T06:35:26;18.60;;;6.47;;
27558;SDS011;15002;52.028;5.670;2023-07-02T06:37:51;15.23;;;6.75;;
27558;SDS011;15002;52.028;5.670;2023-07-02T06:40:17;16.83;;;6.43;;
27558;SDS011;15002;52.028;5.670;2023-07-02T06:42:43;19.30;;;7.70;;
27558;SDS011;15002;52.028;5.670;2023-07-02T06:45:08;14.07;;;6.05;;
27558;SDS011;15002;52.028;5.670;2023-07-02T06:47:34;11.70;;;5.57;;
27558;SDS011;15002;52.028;5.670;2023-07-02T06:50:00;17.10;;;6.25;;
27558;SDS011;15002;52.028;5.670;2023-07-02T06:52:25;13.95;;;6.47;;
27558;SDS011;15002;52.028;5.670;2023-07-02T06:54:51;17.15;;;6.57;;
27558;SDS011;15002;52.028;5.670;2023-07-02T06:57:17;15.75;;;5.93;;
27558;SDS011;15002;52.028;5.670;2023-07-02T06:59:42;13.35;;;6.10;;
27558;SDS011;15002;52.028;5.670;2023-07-02T07:02:08;14.98;;;5.90;;
27558;SDS011;15002;52.028;5.670;2023-07-02T07:04:34;13.13;;;6.07;;
27558;SDS011;15002;52.028;5.670;2023-07-02T07:06:59;11.98;;;5.80;;
27558;SDS011;15002;52.028;5.670;2023-07-02T07:09:27;14.85;;;5.70;;
27558;SDS011;15002;52.028;5.670;2023-07-02T07:11:53;12.32;;;5.93;;
27558;SDS011;15002;52.028;5.670;2023-07-02T07:14:19;15.55;;;6.18;;
27558;SDS011;15002;52.028;5.670;2023-07-02T07:16:45;13.40;;;6.30;;
27558;SDS011;15002;52.028;5.670;2023-07-02T07:19:10;11.82;;;6.07;;
27558;SDS011;15002;52.028;5.670;2023-07-02T07:21:36;11.43;;;5.53;;
27558;SDS011;15002;52.028;5.670;2023-07-02T07:24:02;11.13;;;5.35;;
27558;SDS011;15002;52.028;5.670;2023-07-02T07:26:28;13.18;;;5.63;;
27558;SDS011;15002;52.028;5.670;2023-07-02T07:28:53;15.57;;;6.00;;
27558;SDS011;15002;52.028;5.670;2023-07-02T07:31:23;11.40;;;5.60;;
27558;SDS011;15002;52.028;5.670;2023-07-02T07:33:49;10.07;;;5.20;;
27558;SDS011;15002;52.028;5.670;2023-07-02T07:36:14;16.10;;;5.63;;
27558;SDS011;15002;52.028;5.670;2023-07-02T07:38:42;11.02;;;4.70;;
27558;SDS011;15002;52.028;5.670;2023-07-02T07:41:08;10.63;;;5.13;;
27558;SDS011;15002;52.028;5.670;2023-07-02T07:43:34;15.00;;;5.57;;
27558;SDS011;15002;52.028;5.670;2023-07-02T07:46:00;13.63;;;5.03;;
27558;SDS011;15002;52.028;5.670;2023-07-02T07:48:26;10.68;;;5.28;;
27558;SDS011;15002;52.028;5.670;2023-07-02T07:50:51;10.15;;;5.03;;
27558;SDS011;15002;52.028;5.670;2023-07-02T07:53:17;12.80;;;5.25;;
27558;SDS011;15002;52.028;5.670;2023-07-02T07:55:43;11.48;;;4.88;;
27558;SDS011;15002;52.028;5.670;2023-07-02T07:58:08;14.23;;;5.45;;
27558;SDS011;15002;52.028;5.670;2023-07-02T08:00:34;11.10;;;5.20;;
27558;SDS011;15002;52.028;5.670;2023-07-02T08:03:00;12.32;;;4.95;;
27558;SDS011;15002;52.028;5.670;2023-07-02T08:05:27;16.23;;;5.55;;
27558;SDS011;15002;52.028;5.670;2023-07-02T08:07:54;15.68;;;5.15;;
27558;SDS011;15002;52.028;5.670;2023-07-02T08:10:20;10.63;;;4.55;;
27558;SDS011;15002;52.028;5.670;2023-07-02T08:12:46;14.35;;;5.22;;
27558;SDS011;15002;52.028;5.670;2023-07-02T08:15:12;14.75;;;4.90;;
27558;SDS011;15002;52.028;5.670;2023-07-02T08:17:38;11.38;;;4.50;;
27558;SDS011;15002;52.028;5.670;2023-07-02T08:20:04;11.45;;;5.05;;
27558;SDS011;15002;52.028;5.670;2023-07-02T08:22:34;10.65;;;4.88;;
27558;SDS011;15002;52.028;5.670;2023-07-02T08:25:00;7.78;;;4.18;;
27558;SDS011;15002;52.028;5.670;2023-07-02T08:27:26;9.43;;;4.38;;
27558;SDS011;15002;52.028;5.670;2023-07-02T08:29:52;9.45;;;4.32;;
27558;SDS011;15002;52.028;5.670;2023-07-02T08:32:17;9.82;;;4.35;;
27558;SDS011;15002;52.028;5.670;2023-07-02T08:34:43;9.55;;;4.45;;
27558;SDS011;15002;52.028;5.670;2023-07-02T08:37:09;10.95;;;4.35;;
27558;SDS011;15002;52.028;5.670;2023-07-02T08:39:34;9.45;;;4.65;;
27558;SDS011;15002;52.028;5.670;2023-07-02T08:42:02;8.60;;;4.25;;
27558;SDS011;15002;52.028;5.670;2023-07-02T08:44:28;9.57;;;4.85;;
27558;SDS011;15002;52.028;5.670;2023-07-02T08:46:54;8.48;;;4.07;;
27558;SDS011;15002;52.028;5.670;2023-07-02T08:49:21;12.18;;;4.82;;
27558;SDS011;15002;52.028;5.670;2023-07-02T08:51:47;10.52;;;4.55;;
27558;SDS011;15002;52.028;5.670;2023-07-02T08:54:13;8.63;;;4.88;;
27558;SDS011;15002;52.028;5.670;2023-07-02T08:56:42;10.35;;;4.68;;
27558;SDS011;15002;52.028;5.670;2023-07-02T08:59:08;11.93;;;4.63;;
27558;SDS011;15002;52.028;5.670;2023-07-02T09:01:49;12.65;;;4.47;;
27558;SDS011;15002;52.028;5.670;2023-07-02T09:04:18;8.95;;;4.43;;
27558;SDS011;15002;52.028;5.670;2023-07-02T09:06:46;9.02;;;4.22;;
27558;SDS011;15002;52.028;5.670;2023-07-02T09:09:12;8.07;;;4.60;;
27558;SDS011;15002;52.028;5.670;2023-07-02T09:11:48;8.23;;;4.25;;
27558;SDS011;15002;52.028;5.670;2023-07-02T09:14:28;10.48;;;4.85;;
27558;SDS011;15002;52.028;5.670;2023-07-02T09:17:04;7.07;;;3.75;;
27558;SDS011;15002;52.028;5.670;2023-07-02T09:19:31;8.68;;;4.15;;
27558;SDS011;15002;52.028;5.670;2023-07-02T09:21:58;12.30;;;4.47;;
27558;SDS011;15002;52.028;5.670;2023-07-02T09:24:26;9.23;;;4.22;;
27558;SDS011;15002;52.028;5.670;2023-07-02T09:26:58;7.50;;;4.07;;
27558;SDS011;15002;52.028;5.670;2023-07-02T09:29:25;8.68;;;4.15;;
27558;SDS011;15002;52.028;5.670;2023-07-02T09:31:57;9.98;;;3.88;;
27558;SDS011;15002;52.028;5.670;2023-07-02T09:34:28;5.13;;;3.28;;
27558;SDS011;15002;52.028;5.670;2023-07-02T09:36:58;8.00;;;3.60;;
27558;SDS011;15002;52.028;5.670;2023-07-02T09:39:27;9.15;;;4.07;;
27558;SDS011;15002;52.028;5.670;2023-07-02T09:41:55;8.65;;;4.15;;
27558;SDS011;15002;52.028;5.670;2023-07-02T09:44:22;7.10;;;3.28;;
27558;SDS011;15002;52.028;5.670;2023-07-02T09:47:03;8.93;;;3.92;;
27558;SDS011;15002;52.028;5.670;2023-07-02T09:49:34;8.05;;;3.22;;
27558;SDS011;15002;52.028;5.670;2023-07-02T09:52:02;7.65;;;3.50;;
27558;SDS011;15002;52.028;5.670;2023-07-02T09:54:29;4.80;;;3.20;;
27558;SDS011;15002;52.028;5.670;2023-07-02T09:56:56;6.38;;;3.80;;
27558;SDS011;15002;52.028;5.670;2023-07-02T09:59:23;7.05;;;3.65;;
27558;SDS011;15002;52.028;5.670;2023-07-02T10:01:49;7.15;;;3.90;;
27558;SDS011;15002;52.028;5.670;2023-07-02T10:04:16;6.30;;;3.95;;
27558;SDS011;15002;52.028;5.670;2023-07-02T10:09:12;7.13;;;3.28;;
27558;SDS011;15002;52.028;5.670;2023-07-02T10:11:37;5.97;;;3.55;;
27558;SDS011;15002;52.028;5.670;2023-07-02T10:14:03;5.93;;;3.40;;
27558;SDS011;15002;52.028;5.670;2023-07-02T10:16:29;5.88;;;3.35;;
27558;SDS011;15002;52.028;5.670;2023-07-02T10:19:17;4.93;;;3.60;;
27558;SDS011;15002;52.028;5.670;2023-07-02T10:21:43;9.18;;;4.85;;
27558;SDS011;15002;52.028;5.670;2023-07-02T10:26:37;7.65;;;4.22;;
27558;SDS011;15002;52.028;5.670;2023-07-02T10:29:03;6.18;;;3.88;;
27558;SDS011;15002;52.028;5.670;2023-07-02T10:31:29;8.15;;;3.95;;
27558;SDS011;15002;52.028;5.670;2023-07-02T10:33:54;8.60;;;3.92;;
27558;SDS011;15002;52.028;5.670;2023-07-02T10:36:21;8.93;;;4.00;;
27558;SDS011;15002;52.028;5.670;2023-07-02T10:38:50;8.30;;;4.20;;
27558;SDS011;15002;52.028;5.670;2023-07-02T10:41:23;8.18;;;3.60;;
27558;SDS011;15002;52.028;5.670;2023-07-02T10:43:49;9.38;;;4.30;;
27558;SDS011;15002;52.028;5.670;2023-07-02T10:46:18;7.13;;;4.35;;
27558;SDS011;15002;52.028;5.670;2023-07-02T10:48:54;6.35;;;3.72;;
27558;SDS011;15002;52.028;5.670;2023-07-02T10:51:20;7.45;;;3.58;;
27558;SDS011;15002;52.028;5.670;2023-07-02T10:53:55;7.18;;;3.95;;
27558;SDS011;15002;52.028;5.670;2023-07-02T10:56:25;6.47;;;3.13;;
27558;SDS011;15002;52.028;5.670;2023-07-02T10:58:53;6.88;;;2.67;;
27558;SDS011;15002;52.028;5.670;2023-07-02T11:01:25;4.47;;;3.00;;
27558;SDS011;15002;52.028;5.670;2023-07-02T11:04:01;5.57;;;2.92;;
27558;SDS011;15002;52.028;5.670;2023-07-02T11:06:29;5.55;;;3.05;;
27558;SDS011;15002;52.028;5.670;2023-07-02T11:08:57;5.15;;;2.80;;
27558;SDS011;15002;52.028;5.670;2023-07-02T11:11:23;8.23;;;3.60;;
27558;SDS011;15002;52.028;5.670;2023-07-02T11:13:50;5.20;;;2.92;;
27558;SDS011;15002;52.028;5.670;2023-07-02T11:16:20;6.38;;;3.20;;
27558;SDS011;15002;52.028;5.670;2023-07-02T11:18:49;7.07;;;2.88;;
27558;SDS011;15002;52.028;5.670;2023-07-02T11:21:15;9.27;;;3.03;;
27558;SDS011;15002;52.028;5.670;2023-07-02T11:23:41;5.05;;;3.10;;
27558;SDS011;15002;52.028;5.670;2023-07-02T11:26:07;6.45;;;2.80;;
27558;SDS011;15002;52.028;5.670;2023-07-02T11:28:33;7.90;;;3.00;;
27558;SDS011;15002;52.028;5.670;2023-07-02T11:31:02;6.63;;;2.90;;
27558;SDS011;15002;52.028;5.670;2023-07-02T11:33:38;4.63;;;3.08;;
27558;SDS011;15002;52.028;5.670;2023-07-02T11:36:05;5.18;;;3.10;;
27558;SDS011;15002;52.028;5.670;2023-07-02T11:38:32;7.97;;;3.60;;
27558;SDS011;15002;52.028;5.670;2023-07-02T11:40:59;6.18;;;2.92;;
27558;SDS011;15002;52.028;5.670;2023-07-02T11:43:25;5.60;;;3.00;;
27558;SDS011;15002;52.028;5.670;2023-07-02T11:45:52;7.43;;;2.92;;
27558;SDS011;15002;52.028;5.670;2023-07-02T11:48:18;4.45;;;2.70;;
27558;SDS011;15002;52.028;5.670;2023-07-02T11:50:43;5.70;;;2.80;;
27558;SDS011;15002;52.028;5.670;2023-07-02T11:53:09;5.70;;;3.58;;
27558;SDS011;15002;52.028;5.670;2023-07-02T11:55:36;5.95;;;3.17;;
27558;SDS011;15002;52.028;5.670;2023-07-02T11:58:01;6.57;;;3.35;;
27558;SDS011;15002;52.028;5.670;2023-07-02T12:00:27;6.60;;;2.97;;
27558;SDS011;15002;52.028;5.670;2023-07-02T12:02:52;5.68;;;2.97;;
27558;SDS011;15002;52.028;5.670;2023-07-02T12:05:18;7.18;;;3.42;;
27558;SDS011;15002;52.028;5.670;2023-07-02T12:07:44;6.32;;;3.55;;
27558;SDS011;15002;52.028;5.670;2023-07-02T12:10:09;4.88;;;2.67;;
27558;SDS011;15002;52.028;5.670;2023-07-02T12:12:35;4.80;;;2.97;;
27558;SDS011;15002;52.028;5.670;2023-07-02T12:15:01;6.18;;;3.60;;
27558;SDS011;15002;52.028;5.670;2023-07-02T12:17:27;6.05;;;3.13;;
27558;SDS011;15002;52.028;5.670;2023-07-02T12:19:53;4.70;;;3.10;;
27558;SDS011;15002;52.028;5.670;2023-07-02T12:22:18;6.13;;;3.20;;
27558;SDS011;15002;52.028;5.670;2023-07-02T12:24:46;6.05;;;2.97;;
27558;SDS011;15002;52.028;5.670;2023-07-02T12:27:13;7.43;;;3.50;;
27558;SDS011;15002;52.028;5.670;2023-07-02T12:29:39;6.90;;;3.33;;
27558;SDS011;15002;52.028;5.670;2023-07-02T12:32:05;5.00;;;3.60;;
27558;SDS011;15002;52.028;5.670;2023-07-02T12:34:31;6.90;;;3.15;;
27558;SDS011;15002;52.028;5.670;2023-07-02T12:36:57;9.77;;;3.40;;
27558;SDS011;15002;52.028;5.670;2023-07-02T12:39:22;6.68;;;3.72;;
27558;SDS011;15002;52.028;5.670;2023-07-02T12:41:53;8.35;;;3.47;;
27558;SDS011;15002;52.028;5.670;2023-07-02T12:44:19;6.32;;;3.25;;
27558;SDS011;15002;52.028;5.670;2023-07-02T12:46:45;6.95;;;3.75;;
27558;SDS011;15002;52.028;5.670;2023-07-02T12:49:11;5.65;;;3.25;;
27558;SDS011;15002;52.028;5.670;2023-07-02T12:51:38;5.78;;;3.38;;
27558;SDS011;15002;52.028;5.670;2023-07-02T12:54:03;4.70;;;3.42;;
27558;SDS011;15002;52.028;5.670;2023-07-02T12:56:29;7.85;;;4.22;;
27558;SDS011;15002;52.028;5.670;2023-07-02T12:58:55;6.03;;;3.45;;
27558;SDS011;15002;52.028;5.670;2023-07-02T13:01:20;6.22;;;3.28;;
27558;SDS011;15002;52.028;5.670;2023-07-02T13:03:46;6.22;;;3.20;;
27558;SDS011;15002;52.028;5.670;2023-07-02T13:06:13;4.82;;;3.05;;
27558;SDS011;15002;52.028;5.670;2023-07-02T13:08:39;6.60;;;3.58;;
27558;SDS011;15002;52.028;5.670;2023-07-02T13:11:05;11.43;;;4.00;;
27558;SDS011;15002;52.028;5.670;2023-07-02T13:13:30;6.38;;;3.20;;
27558;SDS011;15002;52.028;5.670;2023-07-02T13:15:56;7.43;;;3.55;;
27558;SDS011;15002;52.028;5.670;2023-07-02T13:18:22;8.35;;;3.70;;
27558;SDS011;15002;52.028;5.670;2023-07-02T13:20:48;6.75;;;3.50;;
27558;SDS011;15002;52.028;5.670;2023-07-02T13:23:14;7.25;;;3.50;;
27558;SDS011;15002;52.028;5.670;2023-07-02T13:25:40;9.57;;;3.92;;
27558;SDS011;15002;52.028;5.670;2023-07-02T13:28:05;10.18;;;3.45;;
27558;SDS011;15002;52.028;5.670;2023-07-02T13:30:31;6.65;;;3.50;;
27558;SDS011;15002;52.028;5.670;2023-07-02T13:32:57;10.10;;;3.90;;
27558;SDS011;15002;52.028;5.670;2023-07-02T13:35:23;6.68;;;3.40;;
27558;SDS011;15002;52.028;5.670;2023-07-02T13:37:48;8.02;;;3.65;;
27558;SDS011;15002;52.028;5.670;2023-07-02T13:40:14;7.05;;;3.30;;
27558;SDS011;15002;52.028;5.670;2023-07-02T13:42:41;6.95;;;3.30;;
27558;SDS011;15002;52.028;5.670;2023-07-02T13:45:08;7.78;;;3.97;;
27558;SDS011;15002;52.028;5.670;2023-07-02T13:47:35;6.35;;;3.55;;
27558;SDS011;15002;52.028;5.670;2023-07-02T13:50:01;5.30;;;3.30;;
27558;SDS011;15002;52.028;5.670;2023-07-02T13:52:28;9.02;;;3.67;;
27558;SDS011;15002;52.028;5.670;2023-07-02T13:54:54;7.15;;;3.53;;
27558;SDS011;15002;52.028;5.670;2023-07-02T13:57:20;10.15;;;3.72;;
27558;SDS011;15002;52.028;5.670;2023-07-02T13:59:46;8.65;;;3.65;;
27558;SDS011;15002;52.028;5.670;2023-07-02T14:02:11;8.30;;;3.25;;
27558;SDS011;15002;52.028;5.670;2023-07-02T14:04:37;6.80;;;3.58;;
27558;SDS011;15002;52.028;5.670;2023-07-02T14:07:04;10.80;;;3.83;;
27558;SDS011;15002;52.028;5.670;2023-07-02T14:09:30;10.02;;;4.35;;
27558;SDS011;15002;52.028;5.670;2023-07-02T14:11:55;6.55;;;3.30;;
27558;SDS011;15002;52.028;5.670;2023-07-02T14:14:21;8.75;;;3.67;;
27558;SDS011;15002;52.028;5.670;2023-07-02T14:16:47;8.85;;;3.55;;
27558;SDS011;15002;52.028;5.670;2023-07-02T14:19:12;7.43;;;3.58;;
27558;SDS011;15002;52.028;5.670;2023-07-02T14:21:38;8.50;;;4.78;;
27558;SDS011;15002;52.028;5.670;2023-07-02T14:24:04;10.85;;;3.58;;
27558;SDS011;15002;52.028;5.670;2023-07-02T14:26:30;6.47;;;3.38;;
27558;SDS011;15002;52.028;5.670;2023-07-02T14:28:55;8.05;;;4.00;;
27558;SDS011;15002;52.028;5.670;2023-07-02T14:31:23;9.45;;;4.13;;
27558;SDS011;15002;52.028;5.670;2023-07-02T14:33:48;7.55;;;3.78;;
27558;SDS011;15002;52.028;5.670;2023-07-02T14:36:14;7.68;;;3.92;;
27558;SDS011;15002;52.028;5.670;2023-07-02T14:38:40;8.50;;;3.83;;
27558;SDS011;15002;52.028;5.670;2023-07-02T14:41:05;6.78;;;3.00;;
27558;SDS011;15002;52.028;5.670;2023-07-02T14:43:31;7.30;;;3.20;;
27558;SDS011;15002;52.028;5.670;2023-07-02T14:45:58;6.85;;;3.30;;